sensor_id;sensor_type;location;lat;lon;timestamp;temperature;humidity
43627;DHT22;29217;52.586;13.442;2023-09-12T00:00:49;16.90;99.90
43627;DHT22;29217;52.586;13.442;2023-09-12T00:03:21;16.90;99.90
43627;DHT22;29217;52.586;13.442;2023-09-12T00:05:54;16.80;99.90
43627;DHT22;29217;52.586;13.442;2023-09-12T00:08:20;16.70;99.90
43627;DHT22;29217;52.586;13.442;2023-09-12T00:10:45;16.80;99.90
43627;DHT22;29217;52.586;13.442;2023-09-12T00:13:11;16.80;99.90
43627;DHT22;29217;52.586;13.442;2023-09-12T00:15:36;16.70;99.90
43627;DHT22;29217;52.586;13.442;2023-09-12T00:18:02;16.80;99.90
43627;DHT22;29217;52.586;13.442;2023-09-12T00:20:28;16.70;99.90
43627;DHT22;29217;52.586;13.442;2023-09-12T00:22:54;16.70;99.90
43627;DHT22;29217;52.586;13.442;2023-09-12T00:25:20;16.70;99.90
43627;DHT22;29217;52.586;13.442;2023-09-12T00:27:46;16.70;99.90
43627;DHT22;29217;52.586;13.442;2023-09-12T00:30:14;16.70;99.90
43627;DHT22;29217;52.586;13.442;2023-09-12T00:32:39;16.70;99.90
43627;DHT22;29217;52.586;13.442;2023-09-12T00:35:05;16.70;99.90
43627;DHT22;29217;52.586;13.442;2023-09-12T00:37:31;16.70;99.90
43627;DHT22;29217;52.586;13.442;2023-09-12T00:39:57;16.60;99.90
43627;DHT22;29217;52.586;13.442;2023-09-12T00:42:25;16.60;99.90
43627;DHT22;29217;52.586;13.442;2023-09-12T00:44:51;16.50;99.90
43627;DHT22;29217;52.586;13.442;2023-09-12T00:47:17;16.50;99.90
43627;DHT22;29217;52.586;13.442;2023-09-12T00:49:43;16.50;99.90
43627;DHT22;29217;52.586;13.442;2023-09-12T00:52:10;16.50;99.90
43627;DHT22;29217;52.586;13.442;2023-09-12T00:54:36;16.50;99.90
43627;DHT22;29217;52.586;13.442;2023-09-12T00:57:02;16.50;99.90
43627;DHT22;29217;52.586;13.442;2023-09-12T00:59:28;16.50;99.90
43627;DHT22;29217;52.586;13.442;2023-09-12T01:01:53;16.50;99.90
43627;DHT22;29217;52.586;13.442;2023-09-12T01:04:19;16.40;99.90
43627;DHT22;29217;52.586;13.442;2023-09-12T01:06:45;16.40;99.90
43627;DHT22;29217;52.586;13.442;2023-09-12T01:09:12;16.40;99.90
43627;DHT22;29217;52.586;13.442;2023-09-12T01:11:38;16.30;99.90
43627;DHT22;29217;52.586;13.442;2023-09-12T01:14:04;16.30;99.90
43627;DHT22;29217;52.586;13.442;2023-09-12T01:16:29;16.30;99.90
43627;DHT22;29217;52.586;13.442;2023-09-12T01:18:55;16.30;99.90
43627;DHT22;29217;52.586;13.442;2023-09-12T01:21:49;16.20;99.90
43627;DHT22;29217;52.586;13.442;2023-09-12T01:27:00;16.20;99.90
43627;DHT22;29217;52.586;13.442;2023-09-12T01:29:30;16.20;99.90
43627;DHT22;29217;52.586;13.442;2023-09-12T01:31:57;16.20;99.90
43627;DHT22;29217;52.586;13.442;2023-09-12T01:34:24;16.20;99.90
43627;DHT22;29217;52.586;13.442;2023-09-12T01:36:49;16.10;99.90
43627;DHT22;29217;52.586;13.442;2023-09-12T01:39:15;16.10;99.90
43627;DHT22;29217;52.586;13.442;2023-09-12T01:41:43;16.10;99.90
43627;DHT22;29217;52.586;13.442;2023-09-12T01:44:12;16.10;99.90
43627;DHT22;29217;52.586;13.442;2023-09-12T01:46:38;16.00;99.90
43627;DHT22;29217;52.586;13.442;2023-09-12T01:49:05;16.00;99.90
43627;DHT22;29217;52.586;13.442;2023-09-12T01:51:31;16.00;99.90
43627;DHT22;29217;52.586;13.442;2023-09-12T01:53:58;16.00;99.90
43627;DHT22;29217;52.586;13.442;2023-09-12T01:56:25;16.00;99.90
43627;DHT22;29217;52.586;13.442;2023-09-12T01:58:51;16.00;99.90
43627;DHT22;29217;52.586;13.442;2023-09-12T02:01:16;15.90;99.90
43627;DHT22;29217;52.586;13.442;2023-09-12T02:03:42;15.90;99.90
43627;DHT22;29217;52.586;13.442;2023-09-12T02:06:07;15.90;99.90
43627;DHT22;29217;52.586;13.442;2023-09-12T02:08:33;15.90;99.90
43627;DHT22;29217;52.586;13.442;2023-09-12T02:10:59;15.90;99.90
43627;DHT22;29217;52.586;13.442;2023-09-12T02:13:24;15.80;99.90
43627;DHT22;29217;52.586;13.442;2023-09-12T02:15:50;15.80;99.90
43627;DHT22;29217;52.586;13.442;2023-09-12T02:18:15;15.80;99.90
43627;DHT22;29217;52.586;13.442;2023-09-12T02:20:41;15.80;99.90
43627;DHT22;29217;52.586;13.442;2023-09-12T02:23:11;15.70;99.90
43627;DHT22;29217;52.586;13.442;2023-09-12T02:25:37;15.70;99.90
43627;DHT22;29217;52.586;13.442;2023-09-12T02:28:02;15.70;99.90
43627;DHT22;29217;52.586;13.442;2023-09-12T02:30:28;15.70;99.90
43627;DHT22;29217;52.586;13.442;2023-09-12T02:32:54;15.70;99.90
43627;DHT22;29217;52.586;13.442;2023-09-12T02:35:20;15.70;99.90
43627;DHT22;29217;52.586;13.442;2023-09-12T02:37:45;15.60;99.90
43627;DHT22;29217;52.586;13.442;2023-09-12T02:40:11;15.60;99.90
43627;DHT22;29217;52.586;13.442;2023-09-12T02:42:37;15.60;99.90
43627;DHT22;29217;52.586;13.442;2023-09-12T02:45:04;15.60;99.90
43627;DHT22;29217;52.586;13.442;2023-09-12T02:47:29;15.60;99.90
43627;DHT22;29217;52.586;13.442;2023-09-12T02:49:55;15.60;99.90
43627;DHT22;29217;52.586;13.442;2023-09-12T02:52:20;15.50;99.90
43627;DHT22;29217;52.586;13.442;2023-09-12T02:54:46;15.50;99.90
43627;DHT22;29217;52.586;13.442;2023-09-12T02:57:11;15.50;99.90
43627;DHT22;29217;52.586;13.442;2023-09-12T02:59:37;15.50;99.90
43627;DHT22;29217;52.586;13.442;2023-09-12T03:02:03;15.50;99.90
43627;DHT22;29217;52.586;13.442;2023-09-12T03:04:29;15.40;99.90
43627;DHT22;29217;52.586;13.442;2023-09-12T03:06:55;15.40;99.90
43627;DHT22;29217;52.586;13.442;2023-09-12T03:09:20;15.40;99.90
43627;DHT22;29217;52.586;13.442;2023-09-12T03:11:48;15.40;99.90
43627;DHT22;29217;52.586;13.442;2023-09-12T03:14:14;15.40;99.90
43627;DHT22;29217;52.586;13.442;2023-09-12T03:16:40;15.30;99.90
43627;DHT22;29217;52.586;13.442;2023-09-12T03:19:05;15.30;99.90
43627;DHT22;29217;52.586;13.442;2023-09-12T03:21:31;15.20;99.90
43627;DHT22;29217;52.586;13.442;2023-09-12T03:23:57;15.20;99.90
43627;DHT22;29217;52.586;13.442;2023-09-12T03:26:22;15.20;99.90
43627;DHT22;29217;52.586;13.442;2023-09-12T03:28:49;15.20;99.90
43627;DHT22;29217;52.586;13.442;2023-09-12T03:31:18;15.20;99.90
43627;DHT22;29217;52.586;13.442;2023-09-12T03:33:44;15.10;99.90
43627;DHT22;29217;52.586;13.442;2023-09-12T03:36:15;15.10;99.90
43627;DHT22;29217;52.586;13.442;2023-09-12T03:38:41;15.10;99.90
43627;DHT22;29217;52.586;13.442;2023-09-12T03:41:06;15.10;99.90
43627;DHT22;29217;52.586;13.442;2023-09-12T03:43:33;15.10;99.90
43627;DHT22;29217;52.586;13.442;2023-09-12T03:45:59;15.10;99.90
43627;DHT22;29217;52.586;13.442;2023-09-12T03:48:25;15.10;99.90
43627;DHT22;29217;52.586;13.442;2023-09-12T03:50:51;15.10;99.90
43627;DHT22;29217;52.586;13.442;2023-09-12T03:53:17;15.10;99.90
43627;DHT22;29217;52.586;13.442;2023-09-12T03:55:43;15.00;99.90
43627;DHT22;29217;52.586;13.442;2023-09-12T03:58:09;15.00;99.90
43627;DHT22;29217;52.586;13.442;2023-09-12T04:00:34;15.00;99.90
43627;DHT22;29217;52.586;13.442;2023-09-12T04:03:00;15.00;99.90
43627;DHT22;29217;52.586;13.442;2023-09-12T04:05:26;14.90;99.90
43627;DHT22;29217;52.586;13.442;2023-09-12T04:07:52;14.90;99.90
43627;DHT22;29217;52.586;13.442;2023-09-12T04:10:19;14.90;99.90
43627;DHT22;29217;52.586;13.442;2023-09-12T04:12:45;14.90;99.90
43627;DHT22;29217;52.586;13.442;2023-09-12T04:15:11;14.90;99.90
43627;DHT22;29217;52.586;13.442;2023-09-12T04:17:36;14.90;99.90
43627;DHT22;29217;52.586;13.442;2023-09-12T04:20:02;14.90;99.90
43627;DHT22;29217;52.586;13.442;2023-09-12T04:22:30;14.90;99.90
43627;DHT22;29217;52.586;13.442;2023-09-12T04:24:55;14.90;99.90
43627;DHT22;29217;52.586;13.442;2023-09-12T04:27:21;14.80;99.90
43627;DHT22;29217;52.586;13.442;2023-09-12T04:29:46;14.90;99.90
43627;DHT22;29217;52.586;13.442;2023-09-12T04:32:12;14.90;99.90
43627;DHT22;29217;52.586;13.442;2023-09-12T04:34:38;14.90;99.90
43627;DHT22;29217;52.586;13.442;2023-09-12T04:37:04;14.80;99.90
43627;DHT22;29217;52.586;13.442;2023-09-12T04:39:31;14.80;99.90
43627;DHT22;29217;52.586;13.442;2023-09-12T04:41:56;14.80;99.90
43627;DHT22;29217;52.586;13.442;2023-09-12T04:44:22;14.80;99.90
43627;DHT22;29217;52.586;13.442;2023-09-12T04:46:47;14.90;99.90
43627;DHT22;29217;52.586;13.442;2023-09-12T04:49:14;14.90;99.90
43627;DHT22;29217;52.586;13.442;2023-09-12T04:51:39;14.80;99.90
43627;DHT22;29217;52.586;13.442;2023-09-12T04:54:05;14.80;99.90
43627;DHT22;29217;52.586;13.442;2023-09-12T04:56:31;14.90;99.90
43627;DHT22;29217;52.586;13.442;2023-09-12T04:58:56;14.80;99.90
43627;DHT22;29217;52.586;13.442;2023-09-12T05:01:22;14.90;99.90
43627;DHT22;29217;52.586;13.442;2023-09-12T05:03:48;14.90;99.90
43627;DHT22;29217;52.586;13.442;2023-09-12T05:06:13;14.90;99.90
43627;DHT22;29217;52.586;13.442;2023-09-12T05:08:39;15.00;99.90
43627;DHT22;29217;52.586;13.442;2023-09-12T05:11:05;15.00;99.90
43627;DHT22;29217;52.586;13.442;2023-09-12T05:13:30;15.10;99.90
43627;DHT22;29217;52.586;13.442;2023-09-12T05:15:56;15.20;99.90
43627;DHT22;29217;52.586;13.442;2023-09-12T05:18:22;15.20;99.90
43627;DHT22;29217;52.586;13.442;2023-09-12T05:20:48;15.20;99.90
43627;DHT22;29217;52.586;13.442;2023-09-12T05:23:14;15.30;99.90
43627;DHT22;29217;52.586;13.442;2023-09-12T05:25:40;15.40;99.90
43627;DHT22;29217;52.586;13.442;2023-09-12T05:28:05;15.40;99.90
43627;DHT22;29217;52.586;13.442;2023-09-12T05:30:31;15.40;99.90
43627;DHT22;29217;52.586;13.442;2023-09-12T05:32:56;15.40;99.90
43627;DHT22;29217;52.586;13.442;2023-09-12T05:35:22;15.50;99.90
43627;DHT22;29217;52.586;13.442;2023-09-12T05:37:48;15.60;99.90
43627;DHT22;29217;52.586;13.442;2023-09-12T05:40:13;15.70;99.90
43627;DHT22;29217;52.586;13.442;2023-09-12T05:42:39;15.70;99.90
43627;DHT22;29217;52.586;13.442;2023-09-12T05:45:06;15.80;99.90
43627;DHT22;29217;52.586;13.442;2023-09-12T05:47:32;15.90;99.90
43627;DHT22;29217;52.586;13.442;2023-09-12T05:49:57;16.00;99.90
43627;DHT22;29217;52.586;13.442;2023-09-12T05:52:24;16.00;99.90
43627;DHT22;29217;52.586;13.442;2023-09-12T05:54:50;16.10;99.90
43627;DHT22;29217;52.586;13.442;2023-09-12T05:57:16;16.20;99.90
43627;DHT22;29217;52.586;13.442;2023-09-12T05:59:41;16.10;99.90
43627;DHT22;29217;52.586;13.442;2023-09-12T06:02:07;16.30;99.90
43627;DHT22;29217;52.586;13.442;2023-09-12T06:04:35;16.30;99.90
43627;DHT22;29217;52.586;13.442;2023-09-12T06:07:02;16.40;99.90
43627;DHT22;29217;52.586;13.442;2023-09-12T06:09:27;16.40;99.90
43627;DHT22;29217;52.586;13.442;2023-09-12T06:11:54;16.40;99.90
43627;DHT22;29217;52.586;13.442;2023-09-12T06:14:19;16.50;99.90
43627;DHT22;29217;52.586;13.442;2023-09-12T06:16:45;16.60;99.90
43627;DHT22;29217;52.586;13.442;2023-09-12T06:19:11;16.70;99.90
43627;DHT22;29217;52.586;13.442;2023-09-12T06:21:36;16.80;99.90
43627;DHT22;29217;52.586;13.442;2023-09-12T06:24:28;17.00;99.90
43627;DHT22;29217;52.586;13.442;2023-09-12T06:26:54;17.10;99.90
43627;DHT22;29217;52.586;13.442;2023-09-12T06:29:19;17.30;99.90
43627;DHT22;29217;52.586;13.442;2023-09-12T06:31:45;17.40;99.90
43627;DHT22;29217;52.586;13.442;2023-09-12T06:34:11;17.50;99.90
43627;DHT22;29217;52.586;13.442;2023-09-12T06:36:37;17.60;99.90
43627;DHT22;29217;52.586;13.442;2023-09-12T06:39:03;17.70;99.90
43627;DHT22;29217;52.586;13.442;2023-09-12T06:41:30;17.80;99.90
43627;DHT22;29217;52.586;13.442;2023-09-12T06:43:56;17.90;99.90
43627;DHT22;29217;52.586;13.442;2023-09-12T06:46:24;18.00;99.90
43627;DHT22;29217;52.586;13.442;2023-09-12T06:48:50;18.10;99.90
43627;DHT22;29217;52.586;13.442;2023-09-12T06:51:17;18.30;99.90
43627;DHT22;29217;52.586;13.442;2023-09-12T06:53:42;18.40;99.90
43627;DHT22;29217;52.586;13.442;2023-09-12T06:56:08;18.50;99.90
43627;DHT22;29217;52.586;13.442;2023-09-12T06:58:34;18.60;99.90
43627;DHT22;29217;52.586;13.442;2023-09-12T07:01:03;18.70;99.90
43627;DHT22;29217;52.586;13.442;2023-09-12T07:03:30;18.70;99.90
43627;DHT22;29217;52.586;13.442;2023-09-12T07:05:56;18.80;99.90
43627;DHT22;29217;52.586;13.442;2023-09-12T07:08:21;18.90;99.90
43627;DHT22;29217;52.586;13.442;2023-09-12T07:10:47;19.00;99.90
43627;DHT22;29217;52.586;13.442;2023-09-12T07:13:12;19.10;99.90
43627;DHT22;29217;52.586;13.442;2023-09-12T07:15:38;19.30;99.90
43627;DHT22;29217;52.586;13.442;2023-09-12T07:18:04;19.50;99.90
43627;DHT22;29217;52.586;13.442;2023-09-12T07:20:35;19.70;99.90
43627;DHT22;29217;52.586;13.442;2023-09-12T07:23:00;19.70;99.90
43627;DHT22;29217;52.586;13.442;2023-09-12T07:25:26;19.90;99.90
43627;DHT22;29217;52.586;13.442;2023-09-12T07:27:51;20.00;99.90
43627;DHT22;29217;52.586;13.442;2023-09-12T07:30:18;20.10;99.90
43627;DHT22;29217;52.586;13.442;2023-09-12T07:32:43;20.30;99.90
43627;DHT22;29217;52.586;13.442;2023-09-12T07:35:09;20.40;99.90
43627;DHT22;29217;52.586;13.442;2023-09-12T07:37:35;20.50;99.90
43627;DHT22;29217;52.586;13.442;2023-09-12T07:40:01;20.70;99.90
43627;DHT22;29217;52.586;13.442;2023-09-12T07:42:27;20.80;99.90
43627;DHT22;29217;52.586;13.442;2023-09-12T07:44:52;20.80;99.90
43627;DHT22;29217;52.586;13.442;2023-09-12T07:47:18;20.90;99.90
43627;DHT22;29217;52.586;13.442;2023-09-12T07:49:44;21.00;99.90
43627;DHT22;29217;52.586;13.442;2023-09-12T07:52:10;21.20;99.90
43627;DHT22;29217;52.586;13.442;2023-09-12T07:54:35;21.30;99.90
43627;DHT22;29217;52.586;13.442;2023-09-12T07:57:02;21.40;99.90
43627;DHT22;29217;52.586;13.442;2023-09-12T07:59:28;21.50;99.90
43627;DHT22;29217;52.586;13.442;2023-09-12T08:01:54;21.60;99.90
43627;DHT22;29217;52.586;13.442;2023-09-12T08:04:19;21.70;99.90
43627;DHT22;29217;52.586;13.442;2023-09-12T08:06:45;21.90;99.90
43627;DHT22;29217;52.586;13.442;2023-09-12T08:09:11;22.10;99.90
43627;DHT22;29217;52.586;13.442;2023-09-12T08:11:36;22.10;99.90
43627;DHT22;29217;52.586;13.442;2023-09-12T08:14:02;22.20;99.90
43627;DHT22;29217;52.586;13.442;2023-09-12T08:16:28;22.30;99.90
43627;DHT22;29217;52.586;13.442;2023-09-12T08:18:53;22.40;99.90
43627;DHT22;29217;52.586;13.442;2023-09-12T08:21:19;22.50;99.90
43627;DHT22;29217;52.586;13.442;2023-09-12T08:23:45;22.50;99.90
43627;DHT22;29217;52.586;13.442;2023-09-12T08:26:10;22.60;99.90
43627;DHT22;29217;52.586;13.442;2023-09-12T08:28:36;22.70;99.90
43627;DHT22;29217;52.586;13.442;2023-09-12T08:31:02;22.80;99.90
43627;DHT22;29217;52.586;13.442;2023-09-12T08:33:28;22.80;99.90
43627;DHT22;29217;52.586;13.442;2023-09-12T08:35:53;22.90;99.90
43627;DHT22;29217;52.586;13.442;2023-09-12T08:38:19;23.10;99.90
43627;DHT22;29217;52.586;13.442;2023-09-12T08:40:51;23.10;99.90
43627;DHT22;29217;52.586;13.442;2023-09-12T08:43:17;23.20;99.90
43627;DHT22;29217;52.586;13.442;2023-09-12T08:45:43;23.30;99.90
43627;DHT22;29217;52.586;13.442;2023-09-12T08:48:11;23.40;99.90
43627;DHT22;29217;52.586;13.442;2023-09-12T08:50:37;23.50;99.90
43627;DHT22;29217;52.586;13.442;2023-09-12T08:53:03;23.60;99.90
43627;DHT22;29217;52.586;13.442;2023-09-12T08:55:29;23.70;99.90
43627;DHT22;29217;52.586;13.442;2023-09-12T08:57:56;23.70;99.90
43627;DHT22;29217;52.586;13.442;2023-09-12T09:00:23;23.80;99.90
43627;DHT22;29217;52.586;13.442;2023-09-12T09:02:48;23.90;99.90
43627;DHT22;29217;52.586;13.442;2023-09-12T09:05:16;23.90;99.90
43627;DHT22;29217;52.586;13.442;2023-09-12T09:07:42;24.00;99.90
43627;DHT22;29217;52.586;13.442;2023-09-12T09:10:15;24.10;99.90
43627;DHT22;29217;52.586;13.442;2023-09-12T09:12:42;24.10;99.90
43627;DHT22;29217;52.586;13.442;2023-09-12T09:15:28;24.20;99.90
43627;DHT22;29217;52.586;13.442;2023-09-12T09:17:55;24.30;99.90
43627;DHT22;29217;52.586;13.442;2023-09-12T09:20:32;24.40;99.90
43627;DHT22;29217;52.586;13.442;2023-09-12T09:23:07;24.50;99.90
43627;DHT22;29217;52.586;13.442;2023-09-12T09:25:39;24.70;99.90
43627;DHT22;29217;52.586;13.442;2023-09-12T09:28:21;24.80;99.90
43627;DHT22;29217;52.586;13.442;2023-09-12T09:30:50;25.00;99.90
43627;DHT22;29217;52.586;13.442;2023-09-12T09:33:17;25.10;99.90
43627;DHT22;29217;52.586;13.442;2023-09-12T09:35:46;25.20;99.90
43627;DHT22;29217;52.586;13.442;2023-09-12T09:38:12;25.30;99.90
43627;DHT22;29217;52.586;13.442;2023-09-12T09:40:44;25.40;99.90
43627;DHT22;29217;52.586;13.442;2023-09-12T09:43:11;25.40;99.90
43627;DHT22;29217;52.586;13.442;2023-09-12T09:45:43;25.40;99.90
43627;DHT22;29217;52.586;13.442;2023-09-12T09:48:23;25.50;99.90
43627;DHT22;29217;52.586;13.442;2023-09-12T09:50:50;25.50;99.90
43627;DHT22;29217;52.586;13.442;2023-09-12T09:53:17;25.50;99.90
43627;DHT22;29217;52.586;13.442;2023-09-12T09:55:42;25.60;99.90
43627;DHT22;29217;52.586;13.442;2023-09-12T09:58:08;25.50;99.90
43627;DHT22;29217;52.586;13.442;2023-09-12T10:00:36;25.60;99.90
43627;DHT22;29217;52.586;13.442;2023-09-12T10:03:04;25.60;99.90
43627;DHT22;29217;52.586;13.442;2023-09-12T10:05:37;25.60;99.90
43627;DHT22;29217;52.586;13.442;2023-09-12T10:08:06;25.60;99.90
43627;DHT22;29217;52.586;13.442;2023-09-12T10:10:32;25.50;99.90
43627;DHT22;29217;52.586;13.442;2023-09-12T10:13:02;25.70;99.90
43627;DHT22;29217;52.586;13.442;2023-09-12T10:15:29;25.70;99.90
43627;DHT22;29217;52.586;13.442;2023-09-12T10:17:57;25.70;99.90
43627;DHT22;29217;52.586;13.442;2023-09-12T10:20:45;25.70;99.90
43627;DHT22;29217;52.586;13.442;2023-09-12T10:23:27;25.80;99.90
43627;DHT22;29217;52.586;13.442;2023-09-12T10:25:57;25.90;99.90
43627;DHT22;29217;52.586;13.442;2023-09-12T10:28:24;25.90;99.90
43627;DHT22;29217;52.586;13.442;2023-09-12T10:30:51;26.00;99.90
43627;DHT22;29217;52.586;13.442;2023-09-12T10:33:18;26.10;99.90
43627;DHT22;29217;52.586;13.442;2023-09-12T10:35:44;26.20;99.90
43627;DHT22;29217;52.586;13.442;2023-09-12T10:38:12;26.30;99.90
43627;DHT22;29217;52.586;13.442;2023-09-12T10:40:40;26.30;99.90
43627;DHT22;29217;52.586;13.442;2023-09-12T10:43:06;26.40;99.90
43627;DHT22;29217;52.586;13.442;2023-09-12T10:45:35;26.60;99.90
43627;DHT22;29217;52.586;13.442;2023-09-12T10:48:02;26.60;99.90
43627;DHT22;29217;52.586;13.442;2023-09-12T10:50:28;26.70;99.90
43627;DHT22;29217;52.586;13.442;2023-09-12T10:52:54;26.70;99.90
43627;DHT22;29217;52.586;13.442;2023-09-12T10:55:20;26.80;99.90
43627;DHT22;29217;52.586;13.442;2023-09-12T10:58:09;26.90;99.90
43627;DHT22;29217;52.586;13.442;2023-09-12T11:00:36;27.00;99.90
43627;DHT22;29217;52.586;13.442;2023-09-12T11:05:55;27.10;99.90
43627;DHT22;29217;52.586;13.442;2023-09-12T11:08:21;27.20;99.90
43627;DHT22;29217;52.586;13.442;2023-09-12T11:11:19;27.20;99.90
43627;DHT22;29217;52.586;13.442;2023-09-12T11:14:03;27.30;99.90
43627;DHT22;29217;52.586;13.442;2023-09-12T11:16:28;27.30;99.90
43627;DHT22;29217;52.586;13.442;2023-09-12T11:21:49;27.50;99.90
43627;DHT22;29217;52.586;13.442;2023-09-12T11:24:16;27.60;99.90
43627;DHT22;29217;52.586;13.442;2023-09-12T11:26:59;27.70;99.90
43627;DHT22;29217;52.586;13.442;2023-09-12T11:29:36;27.80;99.90
43627;DHT22;29217;52.586;13.442;2023-09-12T11:32:03;27.80;99.90
43627;DHT22;29217;52.586;13.442;2023-09-12T11:34:36;27.90;99.90
43627;DHT22;29217;52.586;13.442;2023-09-12T11:37:02;28.10;99.90
43627;DHT22;29217;52.586;13.442;2023-09-12T11:39:31;28.40;99.90
43627;DHT22;29217;52.586;13.442;2023-09-12T11:41:59;28.90;99.90
43627;DHT22;29217;52.586;13.442;2023-09-12T11:44:25;29.40;99.90
43627;DHT22;29217;52.586;13.442;2023-09-12T11:46:52;30.30;99.90
43627;DHT22;29217;52.586;13.442;2023-09-12T11:49:18;31.40;99.90
43627;DHT22;29217;52.586;13.442;2023-09-12T11:51:53;32.20;99.90
43627;DHT22;29217;52.586;13.442;2023-09-12T11:54:20;32.70;99.90
43627;DHT22;29217;52.586;13.442;2023-09-12T11:56:47;33.10;99.90
43627;DHT22;29217;52.586;13.442;2023-09-12T11:59:14;33.00;99.90
43627;DHT22;29217;52.586;13.442;2023-09-12T12:01:40;33.20;99.90
43627;DHT22;29217;52.586;13.442;2023-09-12T12:04:06;33.10;99.90
43627;DHT22;29217;52.586;13.442;2023-09-12T12:06:32;32.80;99.90
43627;DHT22;29217;52.586;13.442;2023-09-12T12:08:59;32.60;99.90
43627;DHT22;29217;52.586;13.442;2023-09-12T12:11:28;32.70;99.90
43627;DHT22;29217;52.586;13.442;2023-09-12T12:13:53;32.60;99.90
43627;DHT22;29217;52.586;13.442;2023-09-12T12:16:19;32.60;99.90
43627;DHT22;29217;52.586;13.442;2023-09-12T12:18:45;32.60;99.90
43627;DHT22;29217;52.586;13.442;2023-09-12T12:21:11;32.60;99.90
43627;DHT22;29217;52.586;13.442;2023-09-12T12:23:36;32.70;99.90
43627;DHT22;29217;52.586;13.442;2023-09-12T12:26:08;32.60;99.90
43627;DHT22;29217;52.586;13.442;2023-09-12T12:28:38;32.40;99.90
43627;DHT22;29217;52.586;13.442;2023-09-12T12:31:04;32.00;99.90
43627;DHT22;29217;52.586;13.442;2023-09-12T12:33:30;32.00;99.90
43627;DHT22;29217;52.586;13.442;2023-09-12T12:36:02;31.90;99.90
43627;DHT22;29217;52.586;13.442;2023-09-12T12:38:33;32.50;99.90
43627;DHT22;29217;52.586;13.442;2023-09-12T12:40:59;32.80;99.90
43627;DHT22;29217;52.586;13.442;2023-09-12T12:43:24;32.70;99.90
43627;DHT22;29217;52.586;13.442;2023-09-12T12:45:57;32.60;99.90
43627;DHT22;29217;52.586;13.442;2023-09-12T12:50:56;32.70;99.90
43627;DHT22;29217;52.586;13.442;2023-09-12T12:56:04;32.40;99.90
43627;DHT22;29217;52.586;13.442;2023-09-12T12:58:29;32.00;99.90
43627;DHT22;29217;52.586;13.442;2023-09-12T13:00:55;31.70;99.90
43627;DHT22;29217;52.586;13.442;2023-09-12T13:03:21;31.90;99.90
43627;DHT22;29217;52.586;13.442;2023-09-12T13:05:46;31.90;99.90
43627;DHT22;29217;52.586;13.442;2023-09-12T13:08:12;31.90;99.90
43627;DHT22;29217;52.586;13.442;2023-09-12T13:10:37;32.00;99.90
43627;DHT22;29217;52.586;13.442;2023-09-12T13:13:03;32.00;99.90
43627;DHT22;29217;52.586;13.442;2023-09-12T13:15:29;31.90;99.90
43627;DHT22;29217;52.586;13.442;2023-09-12T13:17:55;31.70;99.90
43627;DHT22;29217;52.586;13.442;2023-09-12T13:20:20;31.80;99.90
43627;DHT22;29217;52.586;13.442;2023-09-12T13:22:46;31.80;99.90
43627;DHT22;29217;52.586;13.442;2023-09-12T13:25:12;31.90;99.90
43627;DHT22;29217;52.586;13.442;2023-09-12T13:27:37;31.90;99.90
43627;DHT22;29217;52.586;13.442;2023-09-12T13:30:03;31.90;99.90
43627;DHT22;29217;52.586;13.442;2023-09-12T13:32:30;32.00;99.90
43627;DHT22;29217;52.586;13.442;2023-09-12T13:34:55;32.00;99.90
43627;DHT22;29217;52.586;13.442;2023-09-12T13:37:21;32.10;99.90
43627;DHT22;29217;52.586;13.442;2023-09-12T13:39:47;32.10;99.90
43627;DHT22;29217;52.586;13.442;2023-09-12T13:42:15;32.20;99.90
43627;DHT22;29217;52.586;13.442;2023-09-12T13:44:45;32.20;99.90
43627;DHT22;29217;52.586;13.442;2023-09-12T13:47:10;32.50;99.90
43627;DHT22;29217;52.586;13.442;2023-09-12T13:49:36;32.40;99.90
43627;DHT22;29217;52.586;13.442;2023-09-12T13:52:02;32.50;99.90
43627;DHT22;29217;52.586;13.442;2023-09-12T13:54:28;32.50;99.90
43627;DHT22;29217;52.586;13.442;2023-09-12T13:56:53;32.20;99.90
43627;DHT22;29217;52.586;13.442;2023-09-12T13:59:19;32.30;99.90
43627;DHT22;29217;52.586;13.442;2023-09-12T14:01:46;32.20;99.90
43627;DHT22;29217;52.586;13.442;2023-09-12T14:04:11;32.20;99.90
43627;DHT22;29217;52.586;13.442;2023-09-12T14:06:38;32.40;99.90
43627;DHT22;29217;52.586;13.442;2023-09-12T14:09:04;32.30;99.90
43627;DHT22;29217;52.586;13.442;2023-09-12T14:11:30;32.40;99.90
43627;DHT22;29217;52.586;13.442;2023-09-12T14:13:56;32.30;99.90
43627;DHT22;29217;52.586;13.442;2023-09-12T14:16:22;32.20;99.90
43627;DHT22;29217;52.586;13.442;2023-09-12T14:18:47;32.30;99.90
43627;DHT22;29217;52.586;13.442;2023-09-12T14:21:13;32.20;99.90
43627;DHT22;29217;52.586;13.442;2023-09-12T14:23:38;31.80;99.90
43627;DHT22;29217;52.586;13.442;2023-09-12T14:26:04;31.40;99.90
43627;DHT22;29217;52.586;13.442;2023-09-12T14:28:29;31.40;99.90
43627;DHT22;29217;52.586;13.442;2023-09-12T14:30:57;31.70;99.90
43627;DHT22;29217;52.586;13.442;2023-09-12T14:33:23;31.70;99.90
43627;DHT22;29217;52.586;13.442;2023-09-12T14:35:49;31.50;99.90
43627;DHT22;29217;52.586;13.442;2023-09-12T14:38:14;31.30;99.90
43627;DHT22;29217;52.586;13.442;2023-09-12T14:40:40;31.10;99.90
43627;DHT22;29217;52.586;13.442;2023-09-12T14:43:05;31.10;99.90
43627;DHT22;29217;52.586;13.442;2023-09-12T14:45:33;31.00;99.90
43627;DHT22;29217;52.586;13.442;2023-09-12T14:47:58;30.70;99.90
43627;DHT22;29217;52.586;13.442;2023-09-12T14:50:24;30.40;99.90
43627;DHT22;29217;52.586;13.442;2023-09-12T14:52:51;30.20;99.90
43627;DHT22;29217;52.586;13.442;2023-09-12T14:55:16;30.00;99.90
43627;DHT22;29217;52.586;13.442;2023-09-12T14:57:42;29.90;99.90
43627;DHT22;29217;52.586;13.442;2023-09-12T15:00:08;29.50;99.90
43627;DHT22;29217;52.586;13.442;2023-09-12T15:02:34;29.20;99.90
43627;DHT22;29217;52.586;13.442;2023-09-12T15:05:01;29.10;99.90
43627;DHT22;29217;52.586;13.442;2023-09-12T15:07:30;29.00;99.90
43627;DHT22;29217;52.586;13.442;2023-09-12T15:09:56;28.80;99.90
43627;DHT22;29217;52.586;13.442;2023-09-12T15:12:22;28.50;99.90
43627;DHT22;29217;52.586;13.442;2023-09-12T15:14:48;28.40;99.90
43627;DHT22;29217;52.586;13.442;2023-09-12T15:17:15;28.30;99.90
43627;DHT22;29217;52.586;13.442;2023-09-12T15:19:40;28.10;99.90
43627;DHT22;29217;52.586;13.442;2023-09-12T15:22:06;28.00;99.90
43627;DHT22;29217;52.586;13.442;2023-09-12T15:24:31;27.90;99.90
43627;DHT22;29217;52.586;13.442;2023-09-12T15:26:57;27.70;99.90